Terminal Aerodrome Forecast
Issued by NWS

Home | Current Version | Previous Version | Text Only | Print | Product List | Glossary Off
Versions: 1 2 3 4 5 6 7 8 9 10 11 12

000
FTUS43 KICT 190500
TAFSLN
TAF
KSLN 190520Z 1906/2006 16011KT P6SM SKC
     FM191500 18019G28KT P6SM BKN250
     FM191700 18023G32KT P6SM BKN250
     FM200200 17015KT P6SM BKN250=

USA.gov is the U.S. government's official web portal to all federal, state and local government web resources and services.